createdAt,value
2018-10-07T00:01:37.535Z,3.80
2018-10-07T00:04:05.723Z,4.37
2018-10-07T00:06:33.927Z,4.27
2018-10-07T00:09:02.118Z,3.70
2018-10-07T00:11:30.327Z,3.50
2018-10-07T00:13:58.510Z,4.10
2018-10-07T00:16:26.708Z,3.70
2018-10-07T00:18:54.894Z,4.23
2018-10-07T00:21:23.107Z,4.00
2018-10-07T00:23:51.289Z,4.20
2018-10-07T00:26:19.548Z,3.40
2018-10-07T00:28:47.742Z,3.47
2018-10-07T00:31:15.952Z,3.57
2018-10-07T00:33:44.147Z,3.60
2018-10-07T00:36:12.352Z,3.80
2018-10-07T00:38:40.548Z,3.37
2018-10-07T00:41:08.749Z,3.77
2018-10-07T00:43:36.982Z,4.07
2018-10-07T00:46:05.230Z,3.93
2018-10-07T00:48:33.455Z,3.20
2018-10-07T00:51:01.685Z,4.20
2018-10-07T00:53:29.907Z,4.70
2018-10-07T00:55:58.130Z,3.53
2018-10-07T00:58:26.339Z,3.00
2018-10-07T01:00:54.635Z,3.90
2018-10-07T01:03:22.859Z,3.83
2018-10-07T01:05:51.082Z,4.00
2018-10-07T01:08:19.298Z,3.80
2018-10-07T01:10:47.527Z,4.57
2018-10-07T01:13:15.738Z,4.03
2018-10-07T01:15:43.955Z,4.03
2018-10-07T01:18:12.162Z,4.50
2018-10-07T01:20:40.382Z,4.13
2018-10-07T01:23:08.639Z,4.23
2018-10-07T01:25:36.862Z,4.50
2018-10-07T01:28:05.166Z,4.13
2018-10-07T01:30:33.387Z,4.87
2018-10-07T01:33:01.638Z,4.50
2018-10-07T01:35:29.867Z,4.73
2018-10-07T01:37:58.071Z,4.47
2018-10-07T01:40:26.295Z,4.00
2018-10-07T01:42:54.514Z,3.40
2018-10-07T01:45:22.738Z,4.37
2018-10-07T01:47:50.950Z,3.53
2018-10-07T01:50:19.171Z,3.63
2018-10-07T01:52:47.387Z,4.00
2018-10-07T01:55:15.612Z,3.80
2018-10-07T01:57:43.820Z,3.77
2018-10-07T02:00:12.047Z,3.67
2018-10-07T02:02:40.251Z,3.47
2018-10-07T02:05:08.505Z,4.07
2018-10-07T02:07:36.695Z,3.80
2018-10-07T02:10:04.914Z,3.97
2018-10-07T02:12:33.135Z,3.80
2018-10-07T02:15:01.352Z,4.00
2018-10-07T02:17:29.559Z,3.60
2018-10-07T02:19:57.775Z,3.80
2018-10-07T02:22:25.987Z,3.60
2018-10-07T02:24:54.247Z,4.00
2018-10-07T02:27:22.458Z,3.90
2018-10-07T02:29:50.684Z,4.30
2018-10-07T02:32:18.896Z,3.60
2018-10-07T02:34:47.100Z,3.80
2018-10-07T02:37:15.328Z,4.03
2018-10-07T02:39:43.531Z,3.73
2018-10-07T02:42:11.754Z,4.13
2018-10-07T02:44:39.962Z,4.50
2018-10-07T02:47:08.191Z,4.30
2018-10-07T02:49:36.929Z,4.20
2018-10-07T02:52:05.171Z,4.27
2018-10-07T02:54:33.418Z,3.90
2018-10-07T02:57:01.662Z,4.30
2018-10-07T02:59:29.953Z,4.27
2018-10-07T03:01:58.166Z,4.80
2018-10-07T03:04:26.397Z,4.40
2018-10-07T03:06:54.611Z,4.07
2018-10-07T03:09:22.815Z,4.70
2018-10-07T03:11:51.034Z,5.07
2018-10-07T03:14:19.239Z,3.73
2018-10-07T03:16:47.467Z,4.20
2018-10-07T03:19:15.676Z,4.93
2018-10-07T03:21:43.895Z,4.53
2018-10-07T03:24:12.123Z,4.50
2018-10-07T03:26:40.339Z,4.83
2018-10-07T03:29:08.608Z,4.33
2018-10-07T03:31:36.841Z,4.77
2018-10-07T03:34:05.083Z,4.73
2018-10-07T03:36:33.307Z,4.47
2018-10-07T03:39:01.515Z,4.63
2018-10-07T03:41:29.741Z,4.70
2018-10-07T03:43:57.947Z,5.07
2018-10-07T03:46:26.162Z,4.83
2018-10-07T03:48:54.382Z,5.40
2018-10-07T03:51:22.603Z,5.27
2018-10-07T03:53:50.803Z,5.60
2018-10-07T03:56:19.046Z,4.90
2018-10-07T03:58:47.255Z,5.50
2018-10-07T04:01:15.480Z,4.83
2018-10-07T04:03:43.695Z,4.50
2018-10-07T04:06:11.916Z,5.47
2018-10-07T04:08:40.127Z,4.67
2018-10-07T04:11:08.403Z,5.07
2018-10-07T04:13:36.617Z,4.87
2018-10-07T04:16:04.830Z,5.40
2018-10-07T04:18:33.047Z,5.57
2018-10-07T04:21:01.268Z,5.97
2018-10-07T04:23:29.478Z,5.13
2018-10-07T04:25:57.705Z,5.60
2018-10-07T04:28:25.911Z,6.17
2018-10-07T04:30:54.131Z,6.27
2018-10-07T04:33:22.339Z,6.40
2018-10-07T04:35:50.573Z,6.07
2018-10-07T04:38:18.792Z,6.10
2018-10-07T04:40:47.010Z,6.30
2018-10-07T04:43:15.223Z,7.17
2018-10-07T04:45:43.447Z,6.20
2018-10-07T04:48:11.627Z,6.47
2018-10-07T04:50:39.836Z,6.47
2018-10-07T04:53:08.023Z,6.27
2018-10-07T04:55:36.219Z,6.30
2018-10-07T04:58:04.410Z,6.17
2018-10-07T05:00:32.613Z,6.33
2018-10-07T05:03:00.796Z,6.30
2018-10-07T05:05:29.002Z,6.37
2018-10-07T05:07:57.190Z,6.40
2018-10-07T05:10:53.497Z,6.70
2018-10-07T05:13:25.675Z,8.73
2018-10-07T05:15:55.276Z,6.10
2018-10-07T05:18:23.718Z,6.43
2018-10-07T05:20:52.288Z,6.17
2018-10-07T05:23:20.738Z,6.93
2018-10-07T05:25:48.924Z,6.40
2018-10-07T05:28:17.599Z,5.97
2018-10-07T05:30:45.783Z,6.40
2018-10-07T05:33:14.001Z,6.50
2018-10-07T05:35:42.526Z,6.87
2018-10-07T05:38:10.739Z,6.30
2018-10-07T05:40:38.922Z,6.83
2018-10-07T05:43:07.155Z,6.10
2018-10-07T05:45:35.357Z,6.70
2018-10-07T05:48:03.635Z,6.80
2018-10-07T05:50:31.823Z,6.40
2018-10-07T05:53:00.031Z,6.93
2018-10-07T05:55:28.326Z,7.10
2018-10-07T05:57:59.259Z,6.83
2018-10-07T06:00:28.439Z,6.73
2018-10-07T06:03:07.127Z,7.00
2018-10-07T06:05:35.624Z,6.57
2018-10-07T06:08:03.839Z,7.30
2018-10-07T06:10:32.284Z,7.00
2018-10-07T06:13:00.499Z,6.60
2018-10-07T06:15:32.771Z,7.10
2018-10-07T06:18:01.068Z,7.23
2018-10-07T06:20:29.844Z,6.90
2018-10-07T06:22:58.218Z,6.13
2018-10-07T06:25:26.595Z,6.93
2018-10-07T06:27:55.388Z,6.37
2018-10-07T06:30:23.593Z,6.70
2018-10-07T06:32:52.256Z,6.63
2018-10-07T06:35:20.931Z,6.33
2018-10-07T06:37:49.196Z,6.00
2018-10-07T06:40:17.403Z,6.13
2018-10-07T06:42:45.623Z,6.20
2018-10-07T06:45:13.881Z,6.53
2018-10-07T06:47:42.048Z,6.43
2018-10-07T06:50:10.244Z,6.00
2018-10-07T06:52:38.448Z,6.67
2018-10-07T06:55:06.634Z,6.27
2018-10-07T06:57:34.843Z,7.10
2018-10-07T07:00:03.039Z,5.83
2018-10-07T07:02:31.239Z,6.60
2018-10-07T07:04:59.444Z,7.03
2018-10-07T07:07:27.643Z,6.37
2018-10-07T07:09:55.852Z,6.63
2018-10-07T07:12:24.064Z,6.60
2018-10-07T07:14:52.264Z,6.53
2018-10-07T07:17:20.452Z,6.00
2018-10-07T07:19:48.727Z,6.67
2018-10-07T07:22:16.844Z,6.33
2018-10-07T07:24:45.047Z,7.30
2018-10-07T07:27:13.239Z,6.07
2018-10-07T07:29:41.455Z,6.30
2018-10-07T07:32:09.640Z,7.13
2018-10-07T07:34:37.850Z,6.30
2018-10-07T07:37:06.091Z,6.20
2018-10-07T07:39:34.287Z,6.80
2018-10-07T07:42:02.508Z,6.50
2018-10-07T07:44:30.721Z,6.90
2018-10-07T07:46:58.974Z,6.80
2018-10-07T07:49:27.203Z,7.17
2018-10-07T07:51:55.415Z,7.00
2018-10-07T07:54:23.639Z,7.20
2018-10-07T07:56:51.850Z,7.57
2018-10-07T07:59:20.079Z,7.43
2018-10-07T08:01:48.294Z,6.53
2018-10-07T08:04:16.555Z,6.80
2018-10-07T08:06:44.771Z,6.67
2018-10-07T08:09:12.993Z,6.70
2018-10-07T08:11:41.243Z,6.90
2018-10-07T08:14:09.459Z,6.13
2018-10-07T08:16:37.679Z,6.03
2018-10-07T08:19:05.899Z,5.77
2018-10-07T08:21:34.111Z,6.20
2018-10-07T08:24:02.335Z,6.70
2018-10-07T08:26:30.545Z,6.30
2018-10-07T08:28:58.763Z,6.50
2018-10-07T08:31:26.975Z,5.90
2018-10-07T08:33:55.187Z,5.20
2018-10-07T08:36:23.397Z,6.23
2018-10-07T08:38:51.614Z,5.90
2018-10-07T08:41:19.827Z,5.77
2018-10-07T08:43:48.043Z,5.10
2018-10-07T08:46:16.230Z,5.10
2018-10-07T08:48:44.430Z,5.03
2018-10-07T08:51:12.627Z,5.23
2018-10-07T08:53:40.830Z,5.43
2018-10-07T08:56:09.133Z,5.57
2018-10-07T08:58:37.245Z,4.87
2018-10-07T09:01:05.674Z,4.70
2018-10-07T09:03:33.877Z,5.13
2018-10-07T09:06:02.067Z,5.00
2018-10-07T09:08:30.275Z,5.20
2018-10-07T09:10:58.464Z,4.73
2018-10-07T09:13:26.671Z,5.07
2018-10-07T09:15:54.859Z,5.30
2018-10-07T09:18:23.083Z,4.70
2018-10-07T09:20:51.308Z,4.77
2018-10-07T09:23:19.488Z,5.10
2018-10-07T09:25:47.686Z,4.70
2018-10-07T09:28:15.891Z,5.03
2018-10-07T09:30:44.099Z,4.80
2018-10-07T09:33:12.306Z,4.87
2018-10-07T09:35:40.507Z,4.50
2018-10-07T09:38:08.703Z,4.70
2018-10-07T09:40:36.935Z,5.00
2018-10-07T09:43:05.171Z,5.53
2018-10-07T09:45:33.457Z,4.90
2018-10-07T09:48:01.679Z,4.90
2018-10-07T09:50:29.906Z,5.50
2018-10-07T09:52:58.123Z,4.37
2018-10-07T09:55:26.346Z,5.33
2018-10-07T09:57:54.590Z,4.80
2018-10-07T10:00:28.320Z,5.20
2018-10-07T10:02:56.526Z,5.30
2018-10-07T10:05:25.139Z,4.73
2018-10-07T10:07:53.382Z,5.80
2018-10-07T10:10:21.610Z,5.27
2018-10-07T10:12:49.822Z,4.63
2018-10-07T10:15:18.040Z,5.20
2018-10-07T10:17:49.195Z,4.80
2018-10-07T10:20:19.863Z,4.87
2018-10-07T10:23:00.698Z,4.90
2018-10-07T10:26:35.523Z,4.97
2018-10-07T10:29:13.559Z,5.40
2018-10-07T10:31:57.325Z,7.03
2018-10-07T10:34:30.699Z,4.33
2018-10-07T10:37:04.343Z,4.67
2018-10-07T10:39:38.684Z,4.70
2018-10-07T10:42:13.413Z,4.90
2018-10-07T10:44:46.879Z,4.50
2018-10-07T10:47:34.025Z,4.80
2018-10-07T11:03:21.374Z,4.37
2018-10-07T11:06:03.271Z,4.87
2018-10-07T11:08:39.522Z,4.73
2018-10-07T11:11:15.129Z,4.80
2018-10-07T11:13:47.447Z,4.50
2018-10-07T11:17:07.024Z,5.20
2018-10-07T11:19:41.155Z,4.90
2018-10-07T11:22:48.022Z,5.10
2018-10-07T11:25:24.476Z,5.50
2018-10-07T11:28:00.551Z,5.20
2018-10-07T11:30:49.322Z,5.10
2018-10-07T11:33:31.827Z,4.70
2018-10-07T11:38:15.142Z,5.37
2018-10-07T11:40:58.524Z,5.70
2018-10-07T11:43:49.572Z,5.10
2018-10-07T11:46:29.799Z,4.63
2018-10-07T11:49:04.595Z,4.93
2018-10-07T11:51:40.739Z,5.30
2018-10-07T11:54:10.248Z,5.20
2018-10-07T11:56:38.947Z,4.50
2018-10-07T11:59:07.421Z,5.17
2018-10-07T12:01:35.812Z,5.10
2018-10-07T12:04:04.123Z,4.83
2018-10-07T12:06:32.344Z,4.90
2018-10-07T12:09:00.563Z,5.00
2018-10-07T12:11:28.799Z,5.50
2018-10-07T12:13:57.025Z,5.63
2018-10-07T12:16:25.304Z,5.10
2018-10-07T12:18:53.479Z,5.70
2018-10-07T12:21:21.703Z,5.17
2018-10-07T12:23:49.928Z,6.17
2018-10-07T12:26:18.167Z,5.53
2018-10-07T12:28:46.429Z,5.63
2018-10-07T12:31:14.611Z,4.90
2018-10-07T12:33:42.831Z,4.67
2018-10-07T12:36:11.064Z,5.40
2018-10-07T12:38:39.291Z,5.27
2018-10-07T12:41:07.523Z,5.07
2018-10-07T12:43:35.755Z,4.43
2018-10-07T12:46:03.979Z,5.00
2018-10-07T12:48:32.203Z,5.10
2018-10-07T12:51:00.419Z,5.43
2018-10-07T12:53:28.639Z,5.00
2018-10-07T12:55:56.867Z,4.47
2018-10-07T12:58:25.095Z,4.60
2018-10-07T13:00:53.319Z,5.37
2018-10-07T13:03:21.563Z,4.97
2018-10-07T13:05:49.771Z,5.10
2018-10-07T13:08:18.003Z,5.20
2018-10-07T13:10:46.243Z,5.03
2018-10-07T13:13:14.505Z,5.17
2018-10-07T13:15:43.122Z,3.90
2018-10-07T13:18:11.363Z,5.00
2018-10-07T13:20:39.583Z,4.57
2018-10-07T13:23:08.403Z,4.90
2018-10-07T13:25:36.629Z,4.97
2018-10-07T13:28:04.863Z,4.20
2018-10-07T13:30:33.081Z,4.03
2018-10-07T13:33:01.343Z,4.60
2018-10-07T13:35:29.563Z,4.27
2018-10-07T13:37:57.787Z,4.53
2018-10-07T13:40:26.017Z,5.00
2018-10-07T13:42:54.251Z,4.50
2018-10-07T13:45:22.485Z,4.23
2018-10-07T13:47:50.710Z,4.23
2018-10-07T13:50:18.935Z,4.27
2018-10-07T13:52:47.164Z,4.37
2018-10-07T13:55:15.445Z,3.70
2018-10-07T13:57:43.667Z,5.10
2018-10-07T14:00:11.879Z,4.60
2018-10-07T14:02:40.102Z,4.87
2018-10-07T14:05:08.326Z,4.30
2018-10-07T14:07:36.544Z,5.07
2018-10-07T14:10:04.818Z,5.00
2018-10-07T14:12:33.145Z,4.53
2018-10-07T14:15:01.496Z,4.87
2018-10-07T14:17:29.709Z,4.50
2018-10-07T14:19:57.935Z,5.57
2018-10-07T14:22:26.219Z,4.50
2018-10-07T14:24:54.442Z,4.67
2018-10-07T14:27:22.671Z,4.33
2018-10-07T14:29:50.896Z,5.10
2018-10-07T14:32:19.108Z,4.60
2018-10-07T14:34:47.331Z,4.80
2018-10-07T14:37:15.531Z,4.83
2018-10-07T14:39:43.803Z,4.77
2018-10-07T14:42:12.043Z,4.67
2018-10-07T14:44:40.294Z,4.60
2018-10-07T14:47:08.491Z,5.00
2018-10-07T14:49:36.722Z,4.57
2018-10-07T14:52:04.931Z,4.77
2018-10-07T14:54:33.143Z,4.90
2018-10-07T14:57:01.344Z,4.40
2018-10-07T14:59:29.548Z,4.23
2018-10-07T15:01:57.751Z,4.50
2018-10-07T15:04:25.998Z,5.30
2018-10-07T15:06:54.204Z,4.67
2018-10-07T15:09:22.411Z,4.60
2018-10-07T15:11:50.615Z,4.50
2018-10-07T15:14:18.811Z,4.90
2018-10-07T15:16:47.026Z,4.20
2018-10-07T15:19:15.239Z,4.67
2018-10-07T15:21:43.467Z,5.10
2018-10-07T15:24:11.700Z,4.60
2018-10-07T15:26:39.907Z,4.70
2018-10-07T15:29:08.126Z,4.80
2018-10-07T15:31:36.348Z,4.83
2018-10-07T15:34:04.555Z,4.90
2018-10-07T15:36:32.913Z,4.97
2018-10-07T15:39:01.171Z,4.70
2018-10-07T15:41:29.480Z,4.43
2018-10-07T15:43:57.776Z,4.87
2018-10-07T15:46:26.076Z,5.13
2018-10-07T15:48:54.341Z,4.60
2018-10-07T15:51:22.607Z,5.10
2018-10-07T15:53:50.855Z,4.53
2018-10-07T15:56:19.092Z,4.83
2018-10-07T15:58:47.311Z,4.83
2018-10-07T16:01:15.544Z,4.50
2018-10-07T16:03:43.907Z,5.07
2018-10-07T16:06:12.414Z,5.00
2018-10-07T16:08:40.749Z,6.83
2018-10-07T16:11:10.013Z,23.27
2018-10-07T16:13:39.011Z,11.73
2018-10-07T16:16:07.339Z,8.10
2018-10-07T16:18:35.647Z,7.00
2018-10-07T16:21:03.826Z,14.50
2018-10-07T16:23:32.715Z,6.90
2018-10-07T16:26:00.967Z,6.10
2018-10-07T16:28:29.174Z,6.47
2018-10-07T16:30:57.392Z,5.77
2018-10-07T16:33:25.635Z,5.67
2018-10-07T16:35:54.051Z,5.37
2018-10-07T16:38:22.914Z,5.50
2018-10-07T16:40:51.158Z,5.40
2018-10-07T16:43:19.419Z,5.43
2018-10-07T16:45:47.652Z,5.50
2018-10-07T16:48:15.878Z,5.43
2018-10-07T16:50:44.191Z,5.50
2018-10-07T16:53:12.451Z,5.40
2018-10-07T16:55:40.954Z,5.40
2018-10-07T16:58:09.202Z,4.97
2018-10-07T17:00:37.422Z,5.90
2018-10-07T17:03:05.662Z,5.80
2018-10-07T17:05:34.155Z,5.20
2018-10-07T17:08:03.207Z,5.70
2018-10-07T17:10:31.478Z,5.67
2018-10-07T17:12:59.767Z,6.23
2018-10-07T17:15:27.936Z,6.40
2018-10-07T17:17:56.159Z,5.80
2018-10-07T17:20:24.383Z,6.13
2018-10-07T17:22:52.657Z,6.30
2018-10-07T17:25:20.891Z,6.63
2018-10-07T17:27:49.119Z,6.10
2018-10-07T17:30:17.632Z,6.23
2018-10-07T17:32:45.862Z,6.10
2018-10-07T17:35:14.100Z,7.40
2018-10-07T17:37:42.346Z,8.07
2018-10-07T17:40:10.571Z,6.87
2018-10-07T17:42:38.844Z,6.50
2018-10-07T17:45:07.019Z,6.40
2018-10-07T17:47:35.219Z,6.57
2018-10-07T17:50:03.655Z,7.90
2018-10-07T17:52:31.896Z,6.53
2018-10-07T17:55:00.172Z,7.50
2018-10-07T17:57:28.310Z,6.70
2018-10-07T17:59:56.521Z,7.33
2018-10-07T18:02:24.730Z,6.83
2018-10-07T18:04:52.955Z,7.90
2018-10-07T18:07:21.167Z,7.67
2018-10-07T18:09:49.417Z,7.83
2018-10-07T18:12:17.623Z,7.43
2018-10-07T18:14:45.870Z,7.33
2018-10-07T18:17:14.049Z,7.27
2018-10-07T18:19:42.263Z,7.50
2018-10-07T18:22:10.490Z,7.30
2018-10-07T18:24:38.697Z,7.70
2018-10-07T18:27:07.014Z,7.60
2018-10-07T18:29:42.052Z,8.00
2018-10-07T18:32:10.312Z,8.17
2018-10-07T18:34:38.573Z,7.53
2018-10-07T18:37:06.783Z,7.67
2018-10-07T18:39:35.011Z,7.20
2018-10-07T18:42:03.268Z,7.70
2018-10-07T18:44:31.583Z,7.10
2018-10-07T18:46:59.807Z,7.77
2018-10-07T18:49:28.027Z,7.87
2018-10-07T18:51:56.255Z,6.80
2018-10-07T18:54:24.479Z,8.37
2018-10-07T18:56:52.708Z,8.43
2018-10-07T18:59:20.959Z,7.20
2018-10-07T19:01:49.189Z,7.77
2018-10-07T19:04:17.399Z,7.67
2018-10-07T19:06:45.626Z,6.70
2018-10-07T19:09:13.848Z,7.30
2018-10-07T19:11:42.112Z,7.90
2018-10-07T19:14:10.393Z,7.50
2018-10-07T19:16:39.103Z,8.17
2018-10-07T19:19:07.346Z,7.80
2018-10-07T19:21:35.603Z,8.20
2018-10-07T19:24:03.822Z,7.70
2018-10-07T19:26:32.063Z,8.23
2018-10-07T19:29:00.275Z,8.40
2018-10-07T19:31:28.491Z,7.90
2018-10-07T19:33:56.720Z,7.97
2018-10-07T19:36:24.970Z,9.10
2018-10-07T19:38:53.179Z,8.03
2018-10-07T19:41:21.572Z,7.73
2018-10-07T19:43:49.787Z,8.80
2018-10-07T19:46:18.017Z,8.87
2018-10-07T19:48:46.239Z,8.50
2018-10-07T19:51:14.467Z,9.17
2018-10-07T19:53:42.738Z,9.20
2018-10-07T19:56:10.940Z,8.80
2018-10-07T19:58:39.172Z,8.77
2018-10-07T20:01:07.383Z,8.57
2018-10-07T20:03:35.611Z,8.60
2018-10-07T20:06:03.814Z,10.10
2018-10-07T20:08:32.088Z,9.70
2018-10-07T20:11:00.316Z,9.00
2018-10-07T20:13:28.619Z,8.03
2018-10-07T20:15:56.842Z,8.53
2018-10-07T20:18:31.488Z,8.10
2018-10-07T20:20:59.711Z,9.20
2018-10-07T20:23:27.947Z,9.17
2018-10-07T20:25:56.183Z,8.77
2018-10-07T20:28:24.446Z,9.37
2018-10-07T20:30:52.667Z,9.33
2018-10-07T20:33:20.912Z,8.83
2018-10-07T20:35:49.128Z,9.50
2018-10-07T20:38:17.371Z,9.93
2018-10-07T20:40:45.707Z,9.70
2018-10-07T20:43:13.923Z,9.80
2018-10-07T20:45:42.155Z,10.20
2018-10-07T20:48:10.391Z,10.90
2018-10-07T20:50:38.670Z,10.17
2018-10-07T20:53:06.972Z,11.60
2018-10-07T20:55:35.262Z,11.47
2018-10-07T20:58:04.343Z,12.00
2018-10-07T21:00:32.571Z,11.40
2018-10-07T21:03:00.860Z,11.27
2018-10-07T21:05:29.091Z,9.93
2018-10-07T21:07:57.313Z,10.00
2018-10-07T21:10:25.541Z,11.37
2018-10-07T21:12:53.815Z,11.20
2018-10-07T21:15:22.035Z,11.17
2018-10-07T21:17:50.275Z,11.03
2018-10-07T21:20:18.512Z,10.27
2018-10-07T21:22:46.752Z,11.87
2018-10-07T21:25:14.990Z,10.70
2018-10-07T21:27:43.224Z,10.60
2018-10-07T21:30:11.884Z,10.67
2018-10-07T21:32:40.139Z,10.70
2018-10-07T21:35:08.361Z,10.47
2018-10-07T21:37:36.740Z,10.50
2018-10-07T21:40:05.066Z,10.47
2018-10-07T21:42:33.366Z,10.73
2018-10-07T21:45:01.597Z,11.40
2018-10-07T21:47:29.811Z,11.20
2018-10-07T21:49:58.015Z,12.47
2018-10-07T21:52:26.307Z,12.30
2018-10-07T21:54:54.522Z,13.70
2018-10-07T21:57:22.752Z,13.40
2018-10-07T21:59:50.960Z,13.30
2018-10-07T22:02:19.231Z,14.97
2018-10-07T22:04:47.440Z,15.53
2018-10-07T22:07:16.031Z,15.30
2018-10-07T22:09:44.302Z,16.00
2018-10-07T22:12:12.520Z,17.73
2018-10-07T22:14:40.770Z,16.90
2018-10-07T22:17:09.068Z,14.80
2018-10-07T22:19:37.278Z,15.50
2018-10-07T22:22:05.499Z,14.80
2018-10-07T22:24:33.709Z,16.47
2018-10-07T22:27:01.937Z,14.73
2018-10-07T22:29:30.162Z,16.27
2018-10-07T22:31:58.371Z,15.87
2018-10-07T22:34:26.612Z,16.77
2018-10-07T22:36:54.815Z,19.00
2018-10-07T22:39:23.039Z,19.80
2018-10-07T22:41:51.256Z,19.17
2018-10-07T22:44:19.484Z,18.70
2018-10-07T22:46:47.691Z,19.57
2018-10-07T22:49:15.920Z,17.77
2018-10-07T22:51:44.138Z,16.47
2018-10-07T22:54:12.355Z,17.07
2018-10-07T22:56:40.559Z,17.23
2018-10-07T22:59:08.781Z,17.20
2018-10-07T23:01:36.995Z,16.37
2018-10-07T23:04:05.291Z,15.73
2018-10-07T23:06:33.499Z,16.33
2018-10-07T23:09:01.722Z,15.17
2018-10-07T23:11:29.939Z,15.47
2018-10-07T23:13:58.171Z,15.73
2018-10-07T23:16:26.379Z,15.97
2018-10-07T23:18:54.606Z,15.40
2018-10-07T23:21:22.881Z,15.77
2018-10-07T23:23:51.113Z,14.83
2018-10-07T23:26:19.331Z,15.00
2018-10-07T23:28:47.562Z,15.00
2018-10-07T23:31:15.783Z,15.00
2018-10-07T23:33:44.002Z,16.87
2018-10-07T23:36:12.225Z,14.90
2018-10-07T23:38:40.455Z,15.90
2018-10-07T23:41:08.655Z,15.83
2018-10-07T23:43:36.905Z,15.50
2018-10-07T23:46:05.138Z,15.90
2018-10-07T23:48:33.375Z,15.90
2018-10-07T23:51:01.628Z,16.00
2018-10-07T23:53:29.892Z,16.57
2018-10-07T23:55:58.134Z,14.90
2018-10-07T23:58:26.765Z,15.43
